Ana Sayfa
METAR-TAF:

METAR-TAF

Havaalanları :

Challis Airport

Challis, Idaho, Amerika Birleşik Devletleri

Enlem: 44-31-22N, Boylam: 114-12-54W, yükseklik: 1546 m

Güncel hava durumu gözlemi

Rapor saat 01:55 UTC de 34 dakika önce yapıldı.
Rüzgar güney/güneydoğudan 3 kt
Sıcaklık -3°C
Nem 80%
Basınç 1019 hPa
Görüş mesafesi: 16.1 km
6500 ft yükseklikte parçalı çok bulutlu

METAR: KLLJ 260155Z AUTO 16003KT 10SM BKN065 M03/M06 A3009 RMK AO2 SLP224 T10331061

Saat: 19:29 (02:29 UTC)


TAF: eksik

4.000'den fazla havaalanı için hava durumu gözlemleri ve tahminleri (METAR ve TAF raporları).

Kullanılabilir istasyonlar harita üzerinde sarı ve kırmızı noktalarla gösterilir.

İstasyonun adını görmek için fareyi noktanın üzerinde gezdirin.

Sonrasında hava gözlem ve tahminlerini görmek için tıklayın.

Haritayı değiştirmek için: yaklaştırmak için siyah artı işaretli yeşil düğmeye ve uzaklaştırmak için de eksi işaretli düğmeye hızla tıklayın; bitişik haritalar için yeşil okları kullanın.


METAR-TAF: